Manoa — KDBG — position and weather

sailwx.info

Track history (hours):
 
Tides and Currents Weather Stations Pressure Air Temp Water Temp Dewpoint Dewpoint Depression Visibility Wind Speed Wind Dir Waves Ship Positions

Manoa

Owner: MATSON NAVIGATION CO, RALEIGH, NC. More information available from US FCC via Universal Licensing System and Coast Guard Vessel Documentation Center.

Last reported at 2015-Sep-02 06:00 UTC. Time now 2015-Sep-02 19:06 UTC.
Position N 25°36' W 150°42'.

Type: Cargo ship. MMSI: 366562000.

Wind from 120 at 28 knots

Waves 2.0 meters (7 feet), 4 second period

Barometer 1013.0 mb
Air temperature 23.3 ° C
Visibility: greater than 5.4 NM
Dewpoint 21.0 ° C
Water temperature 27.2 ° C

Date/timePositionNaut miles runAvg speedWind from/ knotsBaromVisibWave heightAir tempDewpointWater temp
2015-Sep-02 06:00N 25°36' W 150°42'38120.1 120 / 281013.0 5.4 2.023.321.027.2
2015-Sep-01 11:00N 21°24' W 155°54'   020 / 71009.727.0 3.0 29.4
2015-Aug-26 07:33N 36°57' W 125°12'5021.4
2015-Aug-26 05:13N 37°15' W 124°14'2421.5
2015-Aug-26 04:05N 37°23' W 123°45'1018.4
2015-Aug-26 03:33N 37°26' W 123°33'1615.7
2015-Aug-26 02:33N 37°31' W 123°14'1717.5
2015-Aug-26 01:33N 37°39' W 122°55'1514.7
2015-Aug-26 00:33N 37°46' W 122°38'1212.3
2015-Aug-25 23:33N 37°49' W 122°23'4 4.2
2015-Aug-25 22:32N 37°48' W 122°18'0 0.0
2015-Aug-25 21:32N 37°48' W 122°18'0 0.0
2015-Aug-25 20:32N 37°48' W 122°18'0 0.0
2015-Aug-25 19:32N 37°48' W 122°18'0 0.0
2015-Aug-25 18:32N 37°48' W 122°18'0 0.0
2015-Aug-25 17:32N 37°48' W 122°18'0 0.0
2015-Aug-25 16:32N 37°48' W 122°18'0 0.0
2015-Aug-25 15:32N 37°48' W 122°18'0 0.0
2015-Aug-25 14:32N 37°48' W 122°18'0 0.0
2015-Aug-25 13:32N 37°48' W 122°18'0 0.0
2015-Aug-25 12:32N 37°48' W 122°18'0 0.0
2015-Aug-25 11:32N 37°48' W 122°18'0 0.0
2015-Aug-25 10:32N 37°48' W 122°18'0 0.0
2015-Aug-25 09:32N 37°48' W 122°18'0 0.0
2015-Aug-25 08:32N 37°48' W 122°18'0 0.0
2015-Aug-25 07:32N 37°48' W 122°18'0 0.0
2015-Aug-25 06:32N 37°48' W 122°18'0 0.0
2015-Aug-25 05:32N 37°48' W 122°18'0 0.0
2015-Aug-25 04:32N 37°48' W 122°18'0 0.0
2015-Aug-25 03:32N 37°48' W 122°18'0 0.0
2015-Aug-25 02:32N 37°48' W 122°18'0 0.0
2015-Aug-25 01:32N 37°48' W 122°18'0 0.0
2015-Aug-25 00:32N 37°48' W 122°18'0 0.0
2015-Aug-24 23:32N 37°48' W 122°18'0 0.0
2015-Aug-24 22:31N 37°48' W 122°18'0 0.0
2015-Aug-24 21:33N 37°48' W 122°18'0 0.0
2015-Aug-24 20:33N 37°48' W 122°18'0 0.0
2015-Aug-24 19:33N 37°48' W 122°18'0 0.0
2015-Aug-24 18:33N 37°48' W 122°18'0 0.0
2015-Aug-24 17:33N 37°48' W 122°18'0 0.4
2015-Aug-24 16:33N 37°48' W 122°17'9 8.7
2015-Aug-24 15:33N 37°49' W 122°28'1313.2
2015-Aug-24 14:33N 37°46' W 122°45'1616.2
2015-Aug-24 13:33N 37°54' W 123°03'1717.1
2015-Aug-24 12:33N 38°05' W 123°19'1717.2
2015-Aug-24 11:33N 38°14' W 123°38'1616.5
2015-Aug-24 10:33N 38°22' W 123°56'1818.1
2015-Aug-24 09:34N 38°33' W 124°15'2323.0
2015-Aug-24 08:33N 38°54' W 124°24'2522.9
2015-Aug-24 07:27N 39°18' W 124°35'2022.7
2015-Aug-24 06:33N 39°38' W 124°43'20422.7
2015-Aug-23 21:34N 43°01' W 125°08'2323.0
2015-Aug-23 20:34N 43°24' W 125°09'2623.1
2015-Aug-23 19:25N 43°51' W 125°11'2023.1
2015-Aug-23 18:33N 44°11' W 125°12'2323.5
2015-Aug-23 17:33N 44°34' W 125°13'2523.2
2015-Aug-23 16:30N 44°58' W 125°15'2223.2
2015-Aug-23 15:34N 45°20' W 125°18'2323.2
2015-Aug-23 14:34N 45°43' W 125°20'2323.0
2015-Aug-23 13:34N 46°06' W 125°18'2323.0
2015-Aug-23 12:33N 46°29' W 125°21'2323.3
2015-Aug-23 11:34N 46°52' W 125°23'2322.8
2015-Aug-23 10:33N 47°15' W 125°25'2222.6
2015-Aug-23 09:34N 47°38' W 125°26'2323.0
2015-Aug-23 08:34N 48°00' W 125°21'2322.8
2015-Aug-23 07:33N 48°22' W 125°09'2019.6
2015-Aug-23 06:33N 48°30' W 124°42'  
Track history (hours):
 
Tides and Currents Weather Stations Pressure Air Temp Water Temp Dewpoint Dewpoint Depression Visibility Wind Speed Wind Dir Waves Ship Positions

Manoa

Owner: MATSON NAVIGATION CO, RALEIGH, NC. More information available from US FCC via Universal Licensing System and Coast Guard Vessel Documentation Center.

Last reported at 2015-Sep-02 06:00 UTC. Time now 2015-Sep-02 19:06 UTC.
Position N 25°36' W 150°42'.

Type: Cargo ship. MMSI: 366562000.

Wind from 120 at 28 knots

Waves 2.0 meters (7 feet), 4 second period

Barometer 1013.0 mb
Air temperature 23.3 ° C
Visibility: greater than 5.4 NM
Dewpoint 21.0 ° C
Water temperature 27.2 ° C

Date/timePositionNaut miles runAvg speedWind from/ knotsBaromVisibWave heightAir tempDewpointWater temp
2015-Sep-02 06:00N 25°36' W 150°42'38120.1 120 / 281013.0 5.4 2.023.321.027.2
2015-Sep-01 11:00N 21°24' W 155°54'   020 / 71009.727.0 3.0 29.4
2015-Aug-26 07:33N 36°57' W 125°12'5021.4
2015-Aug-26 05:13N 37°15' W 124°14'2421.5
2015-Aug-26 04:05N 37°23' W 123°45'1018.4
2015-Aug-26 03:33N 37°26' W 123°33'1615.7
2015-Aug-26 02:33N 37°31' W 123°14'1717.5
2015-Aug-26 01:33N 37°39' W 122°55'1514.7
2015-Aug-26 00:33N 37°46' W 122°38'1212.3
2015-Aug-25 23:33N 37°49' W 122°23'4 4.2
2015-Aug-25 22:32N 37°48' W 122°18'0 0.0
2015-Aug-25 21:32N 37°48' W 122°18'0 0.0
2015-Aug-25 20:32N 37°48' W 122°18'0 0.0
2015-Aug-25 19:32N 37°48' W 122°18'0 0.0
2015-Aug-25 18:32N 37°48' W 122°18'0 0.0
2015-Aug-25 17:32N 37°48' W 122°18'0 0.0
2015-Aug-25 16:32N 37°48' W 122°18'0 0.0
2015-Aug-25 15:32N 37°48' W 122°18'0 0.0
2015-Aug-25 14:32N 37°48' W 122°18'0 0.0
2015-Aug-25 13:32N 37°48' W 122°18'0 0.0
2015-Aug-25 12:32N 37°48' W 122°18'0 0.0
2015-Aug-25 11:32N 37°48' W 122°18'0 0.0
2015-Aug-25 10:32N 37°48' W 122°18'0 0.0
2015-Aug-25 09:32N 37°48' W 122°18'0 0.0
2015-Aug-25 08:32N 37°48' W 122°18'0 0.0
2015-Aug-25 07:32N 37°48' W 122°18'0 0.0
2015-Aug-25 06:32N 37°48' W 122°18'0 0.0
2015-Aug-25 05:32N 37°48' W 122°18'0 0.0
2015-Aug-25 04:32N 37°48' W 122°18'0 0.0
2015-Aug-25 03:32N 37°48' W 122°18'0 0.0
2015-Aug-25 02:32N 37°48' W 122°18'0 0.0
2015-Aug-25 01:32N 37°48' W 122°18'0 0.0
2015-Aug-25 00:32N 37°48' W 122°18'0 0.0
2015-Aug-24 23:32N 37°48' W 122°18'0 0.0
2015-Aug-24 22:31N 37°48' W 122°18'0 0.0
2015-Aug-24 21:33N 37°48' W 122°18'0 0.0
2015-Aug-24 20:33N 37°48' W 122°18'0 0.0
2015-Aug-24 19:33N 37°48' W 122°18'0 0.0
2015-Aug-24 18:33N 37°48' W 122°18'0 0.0
2015-Aug-24 17:33N 37°48' W 122°18'0 0.4
2015-Aug-24 16:33N 37°48' W 122°17'9 8.7
2015-Aug-24 15:33N 37°49' W 122°28'1313.2
2015-Aug-24 14:33N 37°46' W 122°45'1616.2
2015-Aug-24 13:33N 37°54' W 123°03'1717.1
2015-Aug-24 12:33N 38°05' W 123°19'1717.2
2015-Aug-24 11:33N 38°14' W 123°38'1616.5
2015-Aug-24 10:33N 38°22' W 123°56'1818.1
2015-Aug-24 09:34N 38°33' W 124°15'2323.0
2015-Aug-24 08:33N 38°54' W 124°24'2522.9
2015-Aug-24 07:27N 39°18' W 124°35'2022.7
2015-Aug-24 06:33N 39°38' W 124°43'20422.7
2015-Aug-23 21:34N 43°01' W 125°08'2323.0
2015-Aug-23 20:34N 43°24' W 125°09'2623.1
2015-Aug-23 19:25N 43°51' W 125°11'2023.1
2015-Aug-23 18:33N 44°11' W 125°12'2323.5
2015-Aug-23 17:33N 44°34' W 125°13'2523.2
2015-Aug-23 16:30N 44°58' W 125°15'2223.2
2015-Aug-23 15:34N 45°20' W 125°18'2323.2
2015-Aug-23 14:34N 45°43' W 125°20'2323.0
2015-Aug-23 13:34N 46°06' W 125°18'2323.0
2015-Aug-23 12:33N 46°29' W 125°21'2323.3
2015-Aug-23 11:34N 46°52' W 125°23'2322.8
2015-Aug-23 10:33N 47°15' W 125°25'2222.6
2015-Aug-23 09:34N 47°38' W 125°26'2323.0
2015-Aug-23 08:34N 48°00' W 125°21'2322.8
2015-Aug-23 07:33N 48°22' W 125°09'2019.6
2015-Aug-23 06:33N 48°30' W 124°42'  

Dump ship's entire track history